Time;durP1;ratioP1;P1;durP2;ratioP2;P2;SDS_P1;SDS_P2;PMS_P1;PMS_P2;Temp;Humidity;BMP_temperature;BMP_pressure;BME280_temperature;BME280_humidity;BME280_pressure;Samples;Min_cycle;Max_cycle;Signal;HPM_P1;HPM_P2
2023/04/24 00:00:09;;;;;;;29.77;11.25;;;8.90;99.90;;;;;;5014857;28;20251;-85
2023/04/24 00:02:39;;;;;;;32.63;13.38;;;8.90;99.90;;;;;;5016366;28;20453;-84
2023/04/24 00:05:06;;;;;;;29.40;11.70;;;8.90;99.90;;;;;;5015793;28;20046;-84
2023/04/24 00:07:33;;;;;;;31.00;12.80;;;8.80;99.90;;;;;;5014295;28;20113;-84
2023/04/24 00:10:00;;;;;;;27.52;11.60;;;8.80;99.90;;;;;;5015389;28;20042;-85
2023/04/24 00:12:27;;;;;;;37.40;14.85;;;8.90;99.90;;;;;;5016090;28;20046;-85
2023/04/24 00:14:53;;;;;;;36.00;12.90;;;8.80;99.90;;;;;;5014940;28;20042;-84
2023/04/24 00:17:20;;;;;;;30.65;12.90;;;8.80;99.90;;;;;;5015049;28;20145;-85
2023/04/24 00:19:47;;;;;;;30.95;12.63;;;8.80;99.90;;;;;;5015375;28;20038;-84
2023/04/24 00:22:14;;;;;;;31.48;12.73;;;8.80;99.90;;;;;;5014200;28;20038;-84
2023/04/24 00:24:41;;;;;;;29.48;10.98;;;8.80;99.90;;;;;;5017905;28;20046;-84
2023/04/24 00:27:07;;;;;;;29.10;12.43;;;8.80;99.90;;;;;;5015357;28;20060;-84
2023/04/24 00:29:34;;;;;;;34.80;12.75;;;8.80;99.90;;;;;;5033912;28;20456;-84
2023/04/24 00:32:00;;;;;;;31.63;12.57;;;8.80;99.90;;;;;;5018229;28;20111;-84
2023/04/24 00:34:27;;;;;;;34.15;13.02;;;8.80;99.90;;;;;;5033526;28;20148;-84
2023/04/24 00:36:54;;;;;;;30.75;11.68;;;8.80;99.90;;;;;;5017987;28;20080;-85
2023/04/24 00:39:21;;;;;;;27.08;11.07;;;8.80;99.90;;;;;;5034036;28;20140;-84
2023/04/24 00:41:48;;;;;;;30.33;12.25;;;8.80;99.90;;;;;;5016857;28;20060;-84
2023/04/24 00:44:15;;;;;;;30.33;11.88;;;8.80;99.90;;;;;;5018185;28;20041;-85
2023/04/24 00:46:42;;;;;;;28.83;11.88;;;8.80;99.90;;;;;;5017123;28;20102;-84
2023/04/24 00:49:08;;;;;;;33.92;12.90;;;8.80;99.90;;;;;;5017746;28;20069;-85
2023/04/24 00:51:36;;;;;;;35.13;12.65;;;8.80;99.90;;;;;;5017972;28;20048;-84
2023/04/24 00:54:03;;;;;;;29.23;11.65;;;8.80;99.90;;;;;;5016792;28;20049;-84
2023/04/24 00:56:30;;;;;;;29.20;11.05;;;8.80;99.90;;;;;;5034466;28;20132;-84
2023/04/24 00:58:56;;;;;;;30.33;10.63;;;8.70;99.90;;;;;;5034140;28;20045;-84
2023/04/24 01:01:23;;;;;;;29.27;11.95;;;8.70;99.90;;;;;;5016803;28;20037;-85
2023/04/24 01:03:50;;;;;;;28.17;11.00;;;8.70;99.90;;;;;;5034080;28;20486;-84
2023/04/24 01:06:17;;;;;;;30.38;11.13;;;8.70;99.90;;;;;;5017929;28;20052;-85
2023/04/24 01:08:44;;;;;;;31.63;12.20;;;8.70;99.90;;;;;;5033124;28;20460;-85
2023/04/24 01:11:10;;;;;;;26.98;10.88;;;8.70;99.90;;;;;;5017462;28;20042;-84
2023/04/24 01:13:37;;;;;;;25.17;10.68;;;8.70;99.90;;;;;;5032790;28;20060;-85
2023/04/24 01:16:04;;;;;;;29.17;10.85;;;8.80;99.90;;;;;;5034763;28;20057;-85
2023/04/24 01:18:33;;;;;;;25.20;10.15;;;8.80;99.90;;;;;;5018070;28;20442;-84
2023/04/24 01:21:00;;;;;;;26.98;10.50;;;8.80;99.90;;;;;;5032616;28;20048;-85
2023/04/24 01:23:26;;;;;;;26.70;10.30;;;8.80;99.90;;;;;;5017362;28;20069;-85
2023/04/24 01:25:53;;;;;;;25.55;10.35;;;8.80;99.90;;;;;;5034580;28;20049;-83
2023/04/24 01:28:20;;;;;;;25.73;10.18;;;8.80;99.90;;;;;;5016254;28;20060;-84
2023/04/24 01:30:47;;;;;;;26.33;11.05;;;8.80;99.90;;;;;;5017396;28;20041;-84
2023/04/24 01:33:13;;;;;;;30.42;11.23;;;8.80;99.90;;;;;;5016336;28;20064;-85
2023/04/24 01:35:40;;;;;;;25.27;10.00;;;8.80;99.90;;;;;;5033665;28;20037;-84
2023/04/24 01:38:07;;;;;;;24.02;10.43;;;8.80;99.90;;;;;;5017662;28;20046;-85
2023/04/24 01:40:35;;;;;;;31.98;11.75;;;8.80;99.90;;;;;;5016111;28;20448;-85
2023/04/24 01:43:01;;;;;;;25.60;11.18;;;8.80;99.90;;;;;;5017352;28;20380;-84
2023/04/24 01:45:29;;;;;;;28.85;10.15;;;8.80;99.90;;;;;;5033631;28;20103;-85
2023/04/24 01:47:56;;;;;;;23.73;9.55;;;8.80;99.90;;;;;;5032935;28;20159;-84
2023/04/24 01:50:23;;;;;;;31.00;10.60;;;8.80;99.90;;;;;;5017772;28;20045;-85
2023/04/24 01:52:49;;;;;;;28.25;10.77;;;8.80;99.90;;;;;;5033834;28;20052;-85
2023/04/24 01:55:16;;;;;;;22.55;9.35;;;8.80;99.90;;;;;;5032622;28;20399;-83
2023/04/24 01:57:44;;;;;;;27.38;10.40;;;8.80;99.90;;;;;;5017416;28;20167;-84
2023/04/24 02:00:11;;;;;;;25.73;9.60;;;8.70;99.90;;;;;;5016576;28;20314;-84
2023/04/24 02:02:41;;;;;;;26.17;10.05;;;8.70;99.90;;;;;;5021910;28;20144;-84
2023/04/24 02:05:12;;;;;;;25.63;9.32;;;8.70;99.90;;;;;;5037604;28;20045;-85
2023/04/24 02:07:38;;;;;;;25.98;9.95;;;8.60;99.90;;;;;;5037179;28;20048;-84
2023/04/24 02:10:05;;;;;;;25.83;10.15;;;8.60;99.90;;;;;;5020878;28;20053;-84
2023/04/24 02:12:32;;;;;;;25.35;10.48;;;8.60;99.90;;;;;;5020912;28;20041;-85
2023/04/24 02:14:59;;;;;;;25.20;9.48;;;8.50;99.90;;;;;;5037179;28;20045;-83
2023/04/24 02:17:25;;;;;;;26.95;9.07;;;8.50;99.90;;;;;;5037340;28;20045;-84
2023/04/24 02:19:52;;;;;;;30.35;10.85;;;8.50;99.90;;;;;;5036261;28;20140;-84
2023/04/24 02:22:19;;;;;;;26.60;9.85;;;8.50;99.90;;;;;;5038045;28;20045;-84
2023/04/24 02:24:46;;;;;;;23.90;10.10;;;8.50;99.90;;;;;;5037963;28;20041;-83
2023/04/24 02:27:14;;;;;;;28.40;11.05;;;8.50;99.90;;;;;;5019737;28;20111;-85
2023/04/24 02:29:41;;;;;;;27.15;9.90;;;8.50;99.90;;;;;;5020543;28;20127;-84
2023/04/24 02:32:11;;;;;;;30.20;10.02;;;8.50;99.90;;;;;;5037165;28;20053;-85
2023/04/24 02:34:38;;;;;;;24.95;9.95;;;8.40;99.90;;;;;;5019429;28;20065;-83
2023/04/24 02:37:07;;;;;;;31.70;10.98;;;8.40;99.90;;;;;;5036709;28;20041;-82
2023/04/24 02:39:35;;;;;;;28.17;9.68;;;8.40;99.90;;;;;;5036686;28;20090;-84
2023/04/24 02:42:02;;;;;;;23.20;9.50;;;8.40;99.90;;;;;;5019133;28;20046;-84
2023/04/24 02:44:29;;;;;;;26.52;10.20;;;8.40;99.90;;;;;;5020405;28;20042;-84
2023/04/24 02:46:56;;;;;;;24.67;10.02;;;8.40;99.90;;;;;;5035932;28;20034;-83
2023/04/24 02:49:23;;;;;;;25.33;10.65;;;8.50;99.90;;;;;;5037743;28;20037;-84
2023/04/24 02:51:50;;;;;;;24.00;9.10;;;8.40;99.90;;;;;;5036895;28;20065;-84
2023/04/24 02:54:16;;;;;;;23.27;8.95;;;8.40;99.90;;;;;;5019234;28;20144;-83
2023/04/24 02:56:43;;;;;;;22.85;9.30;;;8.40;99.90;;;;;;5020078;28;20048;-84
2023/04/24 02:59:10;;;;;;;24.52;9.55;;;8.40;99.90;;;;;;5020006;28;20041;-84
2023/04/24 03:01:37;;;;;;;23.23;9.55;;;8.40;99.90;;;;;;5018836;28;20037;-84
2023/04/24 03:04:04;;;;;;;25.92;8.82;;;8.40;99.90;;;;;;5036182;28;20056;-84
2023/04/24 03:06:32;;;;;;;23.40;9.10;;;8.40;99.90;;;;;;5019430;28;20048;-83
2023/04/24 03:08:59;;;;;;;22.83;9.80;;;8.40;99.90;;;;;;5036234;28;20092;-83
2023/04/24 03:11:26;;;;;;;21.88;8.68;;;8.40;99.90;;;;;;5019726;28;20045;-84
2023/04/24 03:13:53;;;;;;;23.90;9.18;;;8.40;99.90;;;;;;5018738;28;20139;-83
2023/04/24 03:16:19;;;;;;;23.20;8.95;;;8.40;99.90;;;;;;5036398;28;20046;-84
2023/04/24 03:18:46;;;;;;;28.65;9.65;;;8.40;99.90;;;;;;5020325;28;20127;-83
2023/04/24 03:21:14;;;;;;;22.95;8.82;;;8.40;99.90;;;;;;5035210;28;20338;-83
2023/04/24 03:23:41;;;;;;;22.00;8.57;;;8.30;99.90;;;;;;5036260;28;20052;-83
2023/04/24 03:26:09;;;;;;;23.02;8.60;;;8.40;99.90;;;;;;5019690;28;20099;-83
2023/04/24 03:28:43;;;;;;;21.02;9.13;;;8.40;99.90;;;;;;5019850;28;20080;-84
2023/04/24 03:31:10;;;;;;;22.70;9.63;;;8.30;99.90;;;;;;5019694;28;20144;-84
2023/04/24 03:33:37;;;;;;;25.23;9.70;;;8.40;99.90;;;;;;5018583;28;20041;-83
2023/04/24 03:36:05;;;;;;;25.70;8.82;;;8.40;99.90;;;;;;5019452;28;20041;-84
2023/04/24 03:38:38;;;;;;;20.55;8.57;;;8.40;99.90;;;;;;5036101;28;20380;-83
2023/04/24 03:41:20;;;;;;;25.93;9.77;;;8.40;99.90;;;;;;5019840;28;20056;-84
2023/04/24 03:43:54;;;;;;;26.33;9.20;;;8.40;99.90;;;;;;5020043;28;20956;-83
2023/04/24 03:46:21;;;;;;;25.60;9.57;;;8.40;99.90;;;;;;5019201;28;20045;-84
2023/04/24 03:48:53;;;;;;;19.70;8.50;;;8.40;99.90;;;;;;5019060;28;20037;-84
2023/04/24 03:51:27;;;;;;;18.67;8.35;;;8.40;99.90;;;;;;5035413;28;20057;-85
2023/04/24 03:53:58;;;;;;;25.95;9.13;;;8.40;99.90;;;;;;5018471;28;20049;-83
2023/04/24 03:56:28;;;;;;;20.67;8.55;;;8.40;99.90;;;;;;5019405;28;20526;-84
2023/04/24 03:58:55;;;;;;;24.30;10.05;;;8.40;99.90;;;;;;5036285;28;20073;-84
2023/04/24 04:01:22;;;;;;;22.85;9.07;;;8.40;99.90;;;;;;5034008;28;20478;-83
2023/04/24 04:03:59;;;;;;;24.77;9.18;;;8.40;99.90;;;;;;5020314;28;20479;-84
2023/04/24 04:06:28;;;;;;;27.63;9.40;;;8.40;99.90;;;;;;5035284;28;20045;-84
2023/04/24 04:08:58;;;;;;;24.60;9.20;;;8.30;99.90;;;;;;5035014;28;20034;-83
2023/04/24 04:11:24;;;;;;;24.20;9.48;;;8.30;99.90;;;;;;5035018;28;20041;-84
2023/04/24 04:13:51;;;;;;;21.70;9.07;;;8.30;99.90;;;;;;5033935;28;20124;-84
2023/04/24 04:16:20;;;;;;;20.23;8.32;;;8.30;99.90;;;;;;5018909;28;20045;-85
2023/04/24 04:18:50;;;;;;;18.88;8.88;;;8.30;99.90;;;;;;5018713;28;20488;-84
2023/04/24 04:21:17;;;;;;;20.48;9.25;;;8.30;99.90;;;;;;5033635;28;20041;-83
2023/04/24 04:23:45;;;;;;;24.15;8.60;;;8.30;99.90;;;;;;5018168;28;20041;-84
2023/04/24 04:26:20;;;;;;;21.63;8.60;;;8.30;99.90;;;;;;5034909;28;20065;-83
2023/04/24 04:29:06;;;;;;;19.98;8.95;;;8.30;99.90;;;;;;5020741;28;20463;-84
2023/04/24 04:31:36;;;;;;;23.27;9.13;;;8.30;99.90;;;;;;5019392;28;20057;-84
2023/04/24 04:34:07;;;;;;;20.67;8.68;;;8.20;99.90;;;;;;5033870;28;20136;-84
2023/04/24 04:36:36;;;;;;;21.15;8.75;;;8.20;99.90;;;;;;5034386;28;20057;-81
2023/04/24 04:39:18;;;;;;;18.75;8.40;;;8.20;99.90;;;;;;5020149;28;20072;-81
2023/04/24 04:41:56;;;;;;;22.92;9.18;;;8.10;99.90;;;;;;5032952;28;20496;-81
2023/04/24 04:44:27;;;;;;;21.75;9.25;;;8.10;99.90;;;;;;5034894;28;20049;-82
2023/04/24 04:46:57;;;;;;;19.27;8.48;;;8.10;99.90;;;;;;5033074;28;20100;-82
2023/04/24 04:49:28;;;;;;;23.67;8.93;;;8.00;99.90;;;;;;5018713;28;20099;-82
2023/04/24 04:51:56;;;;;;;22.73;8.55;;;8.10;99.90;;;;;;5034242;28;20059;-82
2023/04/24 04:54:25;;;;;;;21.23;7.72;;;8.00;99.90;;;;;;5016821;28;20049;-82
2023/04/24 04:56:52;;;;;;;27.42;9.82;;;8.00;99.90;;;;;;5034065;28;20396;-82
2023/04/24 04:59:19;;;;;;;24.77;8.88;;;8.00;99.90;;;;;;5017855;28;20064;-82
2023/04/24 05:01:48;;;;;;;26.45;9.32;;;8.00;99.90;;;;;;5033217;28;20140;-82
2023/04/24 05:04:16;;;;;;;20.35;9.13;;;8.10;99.90;;;;;;5034109;28;20069;-83
2023/04/24 05:06:43;;;;;;;21.50;7.95;;;8.10;99.90;;;;;;5032975;28;20472;-82
2023/04/24 05:09:10;;;;;;;24.40;8.88;;;8.10;99.90;;;;;;5034810;28;20471;-82
2023/04/24 05:11:48;;;;;;;27.27;8.68;;;8.10;99.90;;;;;;5033814;28;20136;-82
2023/04/24 05:14:17;;;;;;;22.52;8.23;;;8.10;99.90;;;;;;5019175;28;20514;-85
2023/04/24 05:16:47;;;;;;;24.25;9.20;;;8.10;99.90;;;;;;5037381;28;20383;-84
2023/04/24 05:19:16;;;;;;;22.43;9.07;;;8.10;99.90;;;;;;5053707;28;20048;-85
2023/04/24 05:21:45;;;;;;;22.98;9.20;;;8.20;99.90;;;;;;5036306;28;20047;-85
2023/04/24 05:24:12;;;;;;;18.58;8.00;;;8.20;99.90;;;;;;5037738;28;20041;-85
2023/04/24 05:27:08;;;;;;;29.30;9.15;;;8.20;99.90;;;;;;5041055;28;20041;-85
2023/04/24 05:29:40;;;;;;;;;;;8.10;99.90;;;;;;5038162;28;20047;-85
2023/04/24 05:32:08;;;;;;;22.55;9.27;;;8.10;99.90;;;;;;5037469;28;20469;-85
2023/04/24 05:34:35;;;;;;;27.50;9.30;;;8.10;99.90;;;;;;5052647;28;20049;-86
2023/04/24 05:37:02;;;;;;;23.67;9.73;;;8.20;99.90;;;;;;5057834;28;20048;-86
2023/04/24 05:39:29;;;;;;;22.60;8.50;;;8.10;99.90;;;;;;5041574;28;20051;-85
2023/04/24 05:41:57;;;;;;;24.00;9.13;;;8.10;99.90;;;;;;5040276;28;20136;-86
2023/04/24 05:44:25;;;;;;;22.80;9.15;;;8.20;99.90;;;;;;5058989;28;20049;-86
2023/04/24 05:46:55;;;;;;;23.42;8.02;;;8.20;99.90;;;;;;5057589;28;20463;-86
2023/04/24 05:49:23;;;;;;;24.30;9.23;;;8.20;99.90;;;;;;5057838;28;20098;-86
2023/04/24 05:51:55;;;;;;;26.27;9.23;;;8.30;99.90;;;;;;5042058;28;20461;-86
2023/04/24 05:54:28;;;;;;;24.48;9.75;;;8.30;99.90;;;;;;5054931;28;20045;-85
2023/04/24 05:56:55;;;;;;;25.10;10.23;;;8.30;99.90;;;;;;5041616;28;20045;-87
2023/04/24 05:59:36;;;;;;;26.42;10.38;;;8.40;99.90;;;;;;5043399;28;20127;-85
2023/04/24 06:02:06;;;;;;;20.92;8.57;;;8.40;99.90;;;;;;5006413;28;20053;-86
2023/04/24 06:04:36;;;;;;;21.67;7.72;;;8.40;99.90;;;;;;5002096;28;20042;-85
2023/04/24 06:07:03;;;;;;;23.08;9.18;;;8.40;99.90;;;;;;5000750;28;20042;-86
2023/04/24 06:09:32;;;;;;;20.40;8.20;;;8.40;99.90;;;;;;5002201;28;20042;-87
2023/04/24 06:11:59;;;;;;;28.10;9.38;;;8.60;99.90;;;;;;5001584;28;20061;-86
2023/04/24 06:14:35;;;;;;;20.50;7.63;;;8.60;99.90;;;;;;5017266;28;20569;-86
2023/04/24 06:17:38;;;;;;;19.42;8.00;;;8.60;99.90;;;;;;4977705;28;20473;-84
2023/04/24 06:20:06;;;;;;;17.48;7.25;;;8.70;99.90;;;;;;5008967;28;20388;-86
2023/04/24 06:22:38;;;;;;;21.80;8.63;;;8.70;99.90;;;;;;5017866;28;20437;-85
2023/04/24 06:25:07;;;;;;;23.27;9.45;;;8.60;99.90;;;;;;5017633;28;20038;-87
2023/04/24 06:27:41;;;;;;;19.13;8.57;;;8.70;99.90;;;;;;4999828;28;20053;-86
2023/04/24 06:30:13;;;;;;;22.40;8.27;;;8.70;99.90;;;;;;5017436;28;20116;-85
2023/04/24 06:32:41;;;;;;;18.33;7.40;;;8.80;99.90;;;;;;5001483;28;20100;-86
2023/04/24 06:35:09;;;;;;;22.63;8.73;;;8.80;99.90;;;;;;5000275;28;20038;-86
2023/04/24 06:37:43;;;;;;;21.10;8.20;;;8.90;99.90;;;;;;5002093;28;20058;-87
2023/04/24 06:40:19;;;;;;;19.42;6.28;;;9.10;99.90;;;;;;5000593;28;20064;-86
2023/04/24 06:43:03;;;;;;;11.23;4.25;;;9.10;99.90;;;;;;5038785;28;20061;-83
2023/04/24 06:49:11;;;;;;;14.25;4.40;;;9.10;99.90;;;;;;5026410;28;20057;-86
2023/04/24 06:51:40;;;;;;;11.27;4.07;;;9.10;99.90;;;;;;5028626;28;20046;-86
2023/04/24 06:54:07;;;;;;;8.77;3.38;;;9.00;99.90;;;;;;5015193;28;20038;-88
2023/04/24 06:56:34;;;;;;;9.80;3.10;;;9.00;99.90;;;;;;5011443;28;20041;-86
2023/04/24 06:59:01;;;;;;;8.98;2.60;;;8.90;99.90;;;;;;5035804;28;20099;-85
2023/04/24 07:01:27;;;;;;;8.82;3.00;;;8.90;99.90;;;;;;5018116;28;20062;-84
2023/04/24 07:03:55;;;;;;;8.13;3.28;;;9.10;99.90;;;;;;5018076;28;20072;-87
2023/04/24 07:06:23;;;;;;;12.63;3.00;;;9.40;99.90;;;;;;5019055;28;20041;-87
2023/04/24 07:08:50;;;;;;;14.65;3.10;;;9.50;99.90;;;;;;5033783;28;20117;-87
2023/04/24 07:11:16;;;;;;;8.98;2.80;;;9.60;99.90;;;;;;5034606;28;20053;-87
2023/04/24 07:13:44;;;;;;;8.18;2.55;;;9.80;99.90;;;;;;5033002;28;20060;-89
2023/04/24 07:16:10;;;;;;;9.35;2.47;;;9.80;99.90;;;;;;5035533;28;20045;-87
2023/04/24 07:18:38;;;;;;;11.70;2.60;;;9.80;99.90;;;;;;5034681;28;20053;-87
2023/04/24 07:21:05;;;;;;;7.18;2.78;;;9.80;99.90;;;;;;5017717;28;20055;-88
2023/04/24 07:23:31;;;;;;;10.23;2.92;;;9.90;99.90;;;;;;5018887;28;20376;-88
2023/04/24 07:25:58;;;;;;;12.98;3.17;;;10.00;99.90;;;;;;5018562;28;20071;-87
2023/04/24 07:28:25;;;;;;;14.57;3.22;;;10.10;99.90;;;;;;5034130;28;20043;-88
2023/04/24 07:30:55;;;;;;;9.38;2.40;;;10.30;99.90;;;;;;5019227;28;20061;-85
2023/04/24 07:33:21;;;;;;;12.27;2.40;;;10.20;99.90;;;;;;5017013;28;20045;-84
2023/04/24 07:35:48;;;;;;;9.45;2.55;;;10.30;99.90;;;;;;5018058;28;20053;-89
2023/04/24 07:38:15;;;;;;;11.57;2.38;;;10.40;99.90;;;;;;5034904;28;20043;-84
2023/04/24 07:40:42;;;;;;;13.98;3.55;;;10.40;99.90;;;;;;5016279;28;20064;-86
2023/04/24 07:43:08;;;;;;;11.85;3.50;;;10.50;99.90;;;;;;5034941;28;20037;-86
2023/04/24 07:45:37;;;;;;;12.57;2.95;;;10.50;99.90;;;;;;5034757;28;20368;-88
2023/04/24 07:48:04;;;;;;;10.15;2.90;;;10.50;99.90;;;;;;5016757;28;20136;-90
2023/04/24 07:50:31;;;;;;;11.13;3.08;;;10.60;99.90;;;;;;5018454;28;20071;-88
2023/04/24 07:52:57;;;;;;;8.88;2.92;;;10.60;99.90;;;;;;5035118;28;20149;-86
2023/04/24 07:55:24;;;;;;;6.75;2.70;;;10.90;99.90;;;;;;5034045;28;20056;-86
2023/04/24 07:57:56;;;;;;;8.35;2.45;;;11.00;99.90;;;;;;5033685;28;20049;-86
2023/04/24 08:00:22;;;;;;;8.00;2.78;;;11.20;99.90;;;;;;5017130;28;20099;-90
2023/04/24 08:02:49;;;;;;;8.48;2.42;;;11.40;99.90;;;;;;5034100;28;20140;-87
2023/04/24 08:05:16;;;;;;;6.88;2.42;;;11.60;99.90;;;;;;5034462;28;20153;-86
2023/04/24 08:07:45;;;;;;;8.52;2.88;;;11.60;99.90;;;;;;5016851;28;20107;-85
2023/04/24 08:10:13;;;;;;;11.55;2.70;;;11.70;99.90;;;;;;5017987;28;20046;-85
2023/04/24 08:12:40;;;;;;;6.13;2.30;;;11.60;99.90;;;;;;5017860;28;20395;-88
2023/04/24 08:15:07;;;;;;;14.88;2.50;;;11.40;99.90;;;;;;5034376;28;20476;-89
2023/04/24 08:17:33;;;;;;;8.70;2.60;;;11.20;99.90;;;;;;5017561;28;20498;-89
2023/04/24 08:20:01;;;;;;;9.75;2.42;;;11.10;99.90;;;;;;5017316;28;20065;-86
2023/04/24 08:22:28;;;;;;;8.77;2.45;;;11.00;99.90;;;;;;5014678;28;20038;-85
2023/04/24 08:24:55;;;;;;;11.05;2.50;;;10.90;99.90;;;;;;5022848;28;20034;-89
2023/04/24 08:30:31;;;;;;;11.35;2.80;;;11.20;99.90;;;;;;5021805;28;20025;-88
2023/04/24 08:33:01;;;;;;;9.05;2.83;;;11.40;99.90;;;;;;5034178;28;20375;-87
2023/04/24 08:35:37;;;;;;;7.53;2.58;;;11.50;99.90;;;;;;5016692;28;20452;-88
2023/04/24 08:41:08;;;;;;;7.95;2.60;;;12.00;99.90;;;;;;5013656;28;20368;-88
2023/04/24 08:43:36;;;;;;;9.32;2.80;;;11.90;99.90;;;;;;5014917;28;20050;-86
2023/04/24 08:50:15;;;;;;;;;;;;;;;;;;;;;
2023/04/24 08:53:16;;;;;;;12.13;3.30;;;12.40;99.90;;;;;;5034147;28;20479;-87
2023/04/24 08:55:43;;;;;;;8.02;3.42;;;12.10;99.90;;;;;;5033839;28;20049;-86
2023/04/24 09:08:39;;;;;;;9.82;2.95;;;12.90;99.90;;;;;;5012496;28;20375;-87
2023/04/24 09:11:47;;;;;;;8.30;3.38;;;13.10;99.90;;;;;;4976728;28;20129;-88
2023/04/24 09:14:16;;;;;;;10.35;3.08;;;13.20;99.90;;;;;;4957455;28;20042;-88
2023/04/24 09:16:44;;;;;;;9.77;3.22;;;13.20;99.90;;;;;;4971828;28;20082;-87
2023/04/24 09:19:14;;;;;;;8.63;3.03;;;13.30;99.90;;;;;;4977488;28;20046;-85
2023/04/24 09:21:43;;;;;;;8.40;3.13;;;12.90;99.90;;;;;;4983631;28;20051;-90
2023/04/24 09:24:13;;;;;;;12.07;4.80;;;12.70;99.90;;;;;;4958310;28;20082;-89
2023/04/24 09:26:41;;;;;;;11.38;3.00;;;12.70;99.90;;;;;;4992698;28;20070;-88
2023/04/24 09:29:14;;;;;;;12.13;3.15;;;12.70;99.90;;;;;;4977068;28;20042;-88
2023/04/24 09:38:55;;;;;;;8.38;3.00;;;12.70;99.90;;;;;;4947101;28;20049;-88
2023/04/24 09:42:09;;;;;;;9.45;2.80;;;12.80;99.90;;;;;;5009356;28;20046;-90
2023/04/24 09:44:36;;;;;;;10.00;3.67;;;13.30;99.90;;;;;;5014480;28;20050;-91
2023/04/24 09:47:19;;;;;;;10.30;3.40;;;13.80;99.90;;;;;;5026470;28;20103;-90
2023/04/24 09:49:46;;;;;;;11.73;3.50;;;13.80;99.90;;;;;;5018347;28;20057;-90
2023/04/24 09:52:15;;;;;;;8.70;3.03;;;13.30;99.90;;;;;;5013804;28;20054;-89
2023/04/24 09:54:42;;;;;;;9.40;3.20;;;13.40;99.90;;;;;;4997127;28;20061;-90
2023/04/24 10:03:29;;;;;;;12.15;4.07;;;14.00;99.90;;;;;;5014590;28;20100;-88
2023/04/24 10:05:56;;;;;;;12.35;3.55;;;14.10;99.90;;;;;;4997284;28;20049;-86
2023/04/24 10:11:13;;;;;;;10.73;4.00;;;13.60;99.90;;;;;;5014169;28;20085;-87
2023/04/24 10:13:40;;;;;;;11.75;3.80;;;13.60;99.90;;;;;;5012357;28;20105;-87
2023/04/24 10:16:07;;;;;;;10.10;3.80;;;13.70;99.90;;;;;;5013208;28;20053;-86
2023/04/24 10:18:34;;;;;;;12.02;3.65;;;13.60;99.90;;;;;;4997489;28;20137;-86
2023/04/24 10:21:00;;;;;;;15.18;3.88;;;13.50;99.90;;;;;;5013209;28;20091;-86
2023/04/24 10:23:27;;;;;;;14.25;4.30;;;13.50;99.90;;;;;;5017807;28;20042;-86
2023/04/24 10:25:54;;;;;;;11.27;3.63;;;13.40;99.90;;;;;;5017129;28;20069;-86
2023/04/24 10:28:22;;;;;;;9.77;3.65;;;13.30;99.90;;;;;;5000670;28;20056;-86
2023/04/24 10:30:49;;;;;;;12.52;3.50;;;13.30;99.90;;;;;;5016865;28;20057;-86
2023/04/24 10:33:16;;;;;;;12.95;4.28;;;13.20;99.90;;;;;;5000248;28;20091;-88
2023/04/24 10:35:43;;;;;;;12.80;3.83;;;13.30;99.90;;;;;;5017005;28;20046;-86
2023/04/24 10:40:56;;;;;;;12.45;3.72;;;13.20;99.90;;;;;;5017017;28;20128;-87
2023/04/24 10:43:23;;;;;;;9.27;4.07;;;13.20;99.90;;;;;;5016770;28;20045;-86
2023/04/24 10:45:50;;;;;;;12.15;3.67;;;13.30;99.90;;;;;;5016659;28;20054;-90
2023/04/24 10:48:19;;;;;;;13.18;3.42;;;13.40;99.90;;;;;;5018717;28;20077;-86
2023/04/24 10:50:54;;;;;;;10.98;3.53;;;13.20;99.90;;;;;;5027909;28;20369;-88
2023/04/24 10:53:26;;;;;;;9.13;3.25;;;13.30;99.90;;;;;;5032101;28;20053;-88
2023/04/24 10:56:02;;;;;;;15.50;4.07;;;13.50;99.90;;;;;;5023959;28;20360;-86
2023/04/24 11:01:33;;;;;;;12.00;3.03;;;13.70;99.90;;;;;;5030243;28;20034;-86
2023/04/24 11:03:59;;;;;;;9.95;3.60;;;13.80;99.90;;;;;;5019850;28;20064;-87
2023/04/24 11:06:27;;;;;;;12.63;3.67;;;14.00;99.90;;;;;;5030545;28;20373;-84
2023/04/24 11:08:55;;;;;;;11.15;3.83;;;14.00;99.90;;;;;;5023540;28;20356;-85
2023/04/24 11:11:21;;;;;;;12.10;3.90;;;13.90;99.90;;;;;;5025616;28;20037;-84
2023/04/24 11:13:49;;;;;;;14.88;4.03;;;13.70;99.90;;;;;;5021760;28;20048;-84
2023/04/24 11:16:15;;;;;;;10.05;3.58;;;13.50;99.90;;;;;;5024714;28;20048;-85
2023/04/24 11:18:45;;;;;;;9.65;3.88;;;13.60;99.90;;;;;;5024422;28;20042;-84
2023/04/24 11:21:12;;;;;;;15.35;4.20;;;13.70;99.90;;;;;;5024193;28;20101;-85
2023/04/24 11:23:40;;;;;;;10.60;3.40;;;13.60;99.90;;;;;;5024791;28;20038;-86
2023/04/24 11:26:07;;;;;;;14.05;3.75;;;13.60;99.90;;;;;;5026106;28;20520;-83
2023/04/24 11:28:35;;;;;;;8.52;3.67;;;13.80;99.90;;;;;;5022842;28;20037;-86
2023/04/24 11:31:02;;;;;;;12.52;3.90;;;13.70;99.90;;;;;;5025038;28;20046;-85
2023/04/24 11:33:29;;;;;;;10.25;3.78;;;13.70;99.90;;;;;;5022519;28;20034;-85
2023/04/24 11:35:56;;;;;;;12.75;4.07;;;14.30;99.90;;;;;;5024207;28;20414;-86
2023/04/24 11:38:22;;;;;;;12.43;4.28;;;14.60;99.90;;;;;;5025299;28;20052;-86
2023/04/24 11:40:50;;;;;;;14.88;4.43;;;14.90;99.90;;;;;;5021140;28;20144;-85
2023/04/24 11:43:18;;;;;;;9.50;3.83;;;14.90;99.90;;;;;;5024684;28;20049;-89
2023/04/24 11:45:45;;;;;;;12.60;5.20;;;15.00;99.90;;;;;;5025676;28;20107;-83
2023/04/24 11:51:02;;;;;;;11.60;3.40;;;15.10;99.90;;;;;;5014712;28;20196;-84
2023/04/24 11:53:28;;;;;;;17.35;4.15;;;15.60;99.90;;;;;;5014328;28;20042;-83
2023/04/24 11:55:55;;;;;;;8.77;3.92;;;15.50;99.90;;;;;;5014909;28;20064;-83
2023/04/24 11:58:22;;;;;;;14.43;4.43;;;15.30;99.90;;;;;;5015825;28;20044;-83
2023/04/24 12:00:49;;;;;;;12.48;4.35;;;15.00;99.90;;;;;;5014249;28;20034;-83
2023/04/24 12:03:17;;;;;;;13.88;4.50;;;15.10;99.90;;;;;;5015207;28;20042;-84
2023/04/24 12:05:44;;;;;;;12.90;4.20;;;14.80;99.90;;;;;;5014726;28;20037;-83
2023/04/24 12:08:14;;;;;;;10.52;3.72;;;14.50;99.90;;;;;;5014318;28;20060;-84
2023/04/24 12:10:41;;;;;;;11.25;3.72;;;14.40;99.90;;;;;;5015329;28;20038;-86
2023/04/24 12:13:08;;;;;;;12.27;4.40;;;14.80;99.90;;;;;;5014927;28;20046;-84
2023/04/24 12:15:34;;;;;;;11.45;4.72;;;15.50;99.90;;;;;;5014013;28;20042;-85
2023/04/24 12:18:03;;;;;;;9.77;4.20;;;16.60;99.90;;;;;;5015031;28;20081;-87
2023/04/24 12:20:30;;;;;;;12.18;4.68;;;17.50;99.90;;;;;;5017154;28;20049;-85
2023/04/24 12:22:57;;;;;;;12.63;4.55;;;18.40;99.90;;;;;;5026485;28;20060;-84
2023/04/24 12:25:24;;;;;;;15.55;4.60;;;19.00;99.90;;;;;;5027964;28;20114;-86
2023/04/24 12:27:51;;;;;;;9.20;4.38;;;19.30;99.30;;;;;;5021832;28;20045;-84
2023/04/24 12:30:17;;;;;;;14.63;4.88;;;19.80;98.60;;;;;;5022114;28;20093;-85
2023/04/24 12:32:44;;;;;;;11.35;4.55;;;19.90;96.50;;;;;;5015266;28;20038;-84
2023/04/24 12:35:11;;;;;;;14.15;4.40;;;19.40;97.00;;;;;;5013759;28;20871;-85
2023/04/24 12:40:43;;;;;;;14.05;4.53;;;18.50;94.20;;;;;;5016655;28;20441;-84
2023/04/24 12:43:09;;;;;;;12.07;4.68;;;17.90;96.20;;;;;;5016840;28;20038;-84
2023/04/24 12:45:36;;;;;;;11.55;4.80;;;18.00;98.20;;;;;;5033566;28;20449;-86
2023/04/24 12:50:49;;;;;;;13.05;4.72;;;18.20;99.90;;;;;;5034824;28;20116;-84
2023/04/24 12:53:18;;;;;;;9.57;4.60;;;18.80;97.80;;;;;;5033224;28;20116;-85
2023/04/24 12:55:46;;;;;;;9.15;4.10;;;19.30;95.80;;;;;;5030333;28;20108;-88
2023/04/24 12:58:15;;;;;;;11.40;4.50;;;19.90;93.60;;;;;;5007561;28;20038;-86
2023/04/24 13:00:43;;;;;;;10.70;4.70;;;19.90;92.80;;;;;;5021312;28;20455;-86
2023/04/24 13:03:10;;;;;;;11.57;4.25;;;19.30;95.60;;;;;;5024332;28;20449;-86
2023/04/24 13:05:40;;;;;;;10.25;4.30;;;19.40;93.80;;;;;;5025337;28;20507;-85
2023/04/24 13:10:53;;;;;;;12.43;5.13;;;18.70;96.30;;;;;;5024618;28;20476;-85
2023/04/24 13:13:20;;;;;;;8.93;3.78;;;18.60;94.20;;;;;;5022666;28;20042;-84
2023/04/24 13:15:47;;;;;;;11.73;5.43;;;18.70;96.10;;;;;;5024277;28;20048;-84
2023/04/24 13:21:02;;;;;;;14.02;4.90;;;18.70;94.90;;;;;;5022983;28;20040;-85
2023/04/24 13:23:29;;;;;;;11.18;4.18;;;18.40;92.50;;;;;;5022197;28;20033;-84
2023/04/24 13:25:58;;;;;;;9.77;4.20;;;18.20;93.90;;;;;;5015839;28;20046;-85
2023/04/24 13:28:26;;;;;;;10.52;4.20;;;17.90;92.70;;;;;;5013029;28;20112;-84
2023/04/24 13:30:52;;;;;;;10.57;3.97;;;17.60;93.90;;;;;;5017703;28;20053;-85
2023/04/24 13:33:19;;;;;;;10.60;4.15;;;18.30;97.10;;;;;;5015524;28;20090;-85
2023/04/24 13:35:45;;;;;;;10.52;4.65;;;19.00;93.30;;;;;;5016342;28;20050;-85
2023/04/24 13:40:45;;;;;;;9.75;4.70;;;19.10;93.20;;;;;;5029942;28;20045;-85
2023/04/24 13:43:12;;;;;;;10.45;5.20;;;20.00;91.60;;;;;;5020721;28;20057;-84
2023/04/24 13:45:38;;;;;;;9.20;4.50;;;20.30;88.20;;;;;;5034158;28;20383;-85
2023/04/24 13:51:09;;;;;;;10.65;4.80;;;19.90;90.80;;;;;;5026838;28;20041;-85
2023/04/24 13:53:38;;;;;;;10.07;4.55;;;18.90;89.20;;;;;;5021031;28;20530;-86
2023/04/24 13:56:05;;;;;;;9.52;4.22;;;18.40;90.40;;;;;;5028398;28;20041;-85